aviador You're here:

CYPH Decoded Metar

INUKJUAK in QC, CANADA
Report Time2018-06-25 09:00:00
UTC Time2018-06-25 09:55:30
Flight Rules vfr VFR
Wind230° at 04 kt
W.Decomp.*RWY 25: 4.0 kt HW 0.1 kt LCW
W.Rank230° ranks 2
Current wind is below 230° avg. (11.2)
Visibility9999 m
Phenomena:N/A
Clouds:Overcast 038 Hf
Ceiling3,800 ft
Temp00°C (ISA -15)
Dew Point00°C (100% RH)
AAT-3.4°C
QNH1021 hPa
Density Alt-2,011 ft
Elevation10 ft
Report Wrong Elevation
Raw Report
CYPH 250900Z AUTO 23004KT 9SM OVC038 00/M00 A3016 RMK SLP217=

Extra information for CYPH:More info

Metar Taf Metar & Taf Last 4 Metars F.Rules Stats Wind Profile Meteogram Temp Stats Airport Information Weather charts Add Link Nearby VenuesMetar ALERT Operation Metar Decoded Social comments